createdAt,value
2018-07-26T00:01:12.249Z,98757.19
2018-07-26T00:03:41.457Z,98759.97
2018-07-26T00:06:10.558Z,98754.70
2018-07-26T00:08:39.663Z,98754.85
2018-07-26T00:11:08.746Z,98754.38
2018-07-26T00:13:38.393Z,98756.12
2018-07-26T00:16:07.476Z,98755.99
2018-07-26T00:18:36.563Z,98756.14
2018-07-26T00:21:05.701Z,98760.55
2018-07-26T00:23:34.960Z,98766.42
2018-07-26T00:26:04.059Z,98758.69
2018-07-26T00:28:33.178Z,98765.14
2018-07-26T00:31:02.245Z,98753.69
2018-07-26T00:33:31.318Z,98763.03
2018-07-26T00:36:00.411Z,98730.91
2018-07-26T00:38:29.534Z,98759.33
2018-07-26T00:40:58.621Z,98754.56
2018-07-26T00:43:27.678Z,98758.03
2018-07-26T00:45:56.905Z,98754.95
2018-07-26T00:48:25.980Z,98761.67
2018-07-26T00:50:55.058Z,98758.41
2018-07-26T00:53:24.127Z,98753.02
2018-07-26T00:55:53.228Z,98761.02
2018-07-26T00:58:22.329Z,98760.76
2018-07-26T01:00:52.426Z,98762.27
2018-07-26T01:03:21.459Z,98762.08
2018-07-26T01:05:50.553Z,98764.70
2018-07-26T01:08:19.649Z,98765.13
2018-07-26T01:10:48.722Z,98762.63
2018-07-26T01:13:17.799Z,98766.91
2018-07-26T01:15:46.870Z,98763.81
2018-07-26T01:18:15.973Z,98769.77
2018-07-26T01:20:45.043Z,98762.66
2018-07-26T01:23:14.101Z,98765.34
2018-07-26T01:25:43.144Z,98762.04
2018-07-26T01:28:12.252Z,98760.28
2018-07-26T01:30:41.323Z,98762.83
2018-07-26T01:33:10.402Z,98763.34
2018-07-26T01:35:39.475Z,98760.23
2018-07-26T01:38:08.517Z,98759.80
2018-07-26T01:40:37.788Z,98759.45
2018-07-26T01:43:17.914Z,98755.02
2018-07-26T01:45:47.007Z,98749.58
2018-07-26T01:48:16.060Z,98745.45
2018-07-26T01:50:45.130Z,98744.31
2018-07-26T01:53:14.222Z,98743.58
2018-07-26T01:55:43.286Z,98743.27
2018-07-26T01:58:12.339Z,98738.84
2018-07-26T02:00:41.397Z,98742.33
2018-07-26T02:03:11.141Z,98741.55
2018-07-26T02:05:40.198Z,98743.25
2018-07-26T02:08:09.290Z,98746.50
2018-07-26T02:10:38.380Z,98752.19
2018-07-26T02:13:07.425Z,98747.41
2018-07-26T02:15:36.508Z,98753.10
2018-07-26T02:18:05.589Z,98749.11
2018-07-26T02:20:34.660Z,98747.86
2018-07-26T02:23:03.730Z,98750.59
2018-07-26T02:25:32.800Z,98749.64
2018-07-26T02:28:01.898Z,98749.73
2018-07-26T02:30:31.014Z,98743.70
2018-07-26T02:33:01.031Z,98743.91
2018-07-26T02:35:30.114Z,98747.27
2018-07-26T02:37:59.147Z,98744.81
2018-07-26T02:40:28.196Z,98742.71
2018-07-26T02:42:57.369Z,98746.40
2018-07-26T02:45:26.438Z,98747.83
2018-07-26T02:47:55.473Z,98744.50
2018-07-26T02:50:24.571Z,98750.03
2018-07-26T02:52:53.565Z,98758.70
2018-07-26T02:55:22.692Z,98752.48
2018-07-26T02:57:52.171Z,98755.97
2018-07-26T03:00:21.222Z,98763.58
2018-07-26T03:02:50.281Z,98761.15
2018-07-26T03:05:19.372Z,98765.07
2018-07-26T03:07:48.407Z,98762.76
2018-07-26T03:10:17.628Z,98766.01
2018-07-26T03:12:46.671Z,98768.05
2018-07-26T03:15:15.730Z,98770.30
2018-07-26T03:17:44.822Z,98775.09
2018-07-26T03:20:13.908Z,98768.72
2018-07-26T03:22:42.918Z,98766.91
2018-07-26T03:25:12.063Z,98765.13
2018-07-26T03:27:41.537Z,98765.47
2018-07-26T03:30:10.918Z,98772.61
2018-07-26T03:32:39.990Z,98767.79
2018-07-26T03:35:09.146Z,98774.75
2018-07-26T03:37:38.235Z,98774.52
2018-07-26T03:40:07.356Z,98772.30
2018-07-26T03:42:36.453Z,98774.89
2018-07-26T03:45:06.113Z,98780.19
2018-07-26T03:47:35.226Z,98777.58
2018-07-26T03:50:04.790Z,98773.13
2018-07-26T03:52:33.861Z,98774.92
2018-07-26T03:55:02.907Z,98776.63
2018-07-26T03:57:31.994Z,98779.08
2018-07-26T04:00:01.065Z,98776.48
2018-07-26T04:02:30.171Z,98778.88
2018-07-26T04:04:59.283Z,98782.00
2018-07-26T04:07:28.374Z,98794.33
2018-07-26T04:09:57.477Z,98787.94
2018-07-26T04:12:26.582Z,98789.41
2018-07-26T04:14:55.678Z,98781.23
2018-07-26T04:17:24.958Z,98782.59
2018-07-26T04:19:54.038Z,98787.16
2018-07-26T04:22:23.959Z,98787.16
2018-07-26T04:24:53.248Z,98797.91
2018-07-26T04:27:22.297Z,98790.06
2018-07-26T04:29:51.848Z,98791.41
2018-07-26T04:32:21.256Z,98793.20
2018-07-26T04:34:50.364Z,98797.02
2018-07-26T04:37:19.438Z,98794.42
2018-07-26T04:39:48.580Z,98795.34
2018-07-26T04:42:17.697Z,98792.89
2018-07-26T04:44:47.221Z,98795.33
2018-07-26T04:47:18.565Z,98790.98
2018-07-26T04:49:47.622Z,98791.86
2018-07-26T04:52:16.681Z,98788.28
2018-07-26T04:54:45.734Z,98795.78
2018-07-26T04:57:14.838Z,98792.98
2018-07-26T04:59:43.911Z,98795.77
2018-07-26T05:02:13.021Z,98798.23
2018-07-26T05:04:42.093Z,98796.13
2018-07-26T05:07:11.153Z,98799.61
2018-07-26T05:09:40.205Z,98799.91
2018-07-26T05:12:09.281Z,98801.94
2018-07-26T05:14:38.365Z,98802.37
2018-07-26T05:17:07.450Z,98808.17
2018-07-26T05:19:36.545Z,98805.53
2018-07-26T05:22:05.668Z,98806.19
2018-07-26T05:24:34.781Z,98803.59
2018-07-26T05:27:03.942Z,98805.56
2018-07-26T05:29:33.089Z,98814.73
2018-07-26T05:32:02.107Z,98810.55
2018-07-26T05:34:31.218Z,98819.24
2018-07-26T05:37:00.609Z,98814.10
2018-07-26T05:39:29.807Z,98819.59
2018-07-26T05:41:58.936Z,98811.48
2018-07-26T05:44:28.061Z,98816.47
2018-07-26T05:46:57.141Z,98810.92
2018-07-26T05:49:26.173Z,98813.61
2018-07-26T05:51:55.249Z,98819.22
2018-07-26T05:54:24.330Z,98817.18
2018-07-26T05:56:54.533Z,98825.06
2018-07-26T05:59:24.366Z,98821.84
2018-07-26T06:01:53.572Z,98818.29
2018-07-26T06:04:22.818Z,98818.58
2018-07-26T06:06:51.953Z,98820.69
2018-07-26T06:09:21.145Z,98826.32
2018-07-26T06:11:50.234Z,98828.88
2018-07-26T06:14:19.878Z,98829.45
2018-07-26T06:16:48.966Z,98827.86
2018-07-26T06:19:19.499Z,98826.73
2018-07-26T06:21:48.609Z,98823.01
2018-07-26T06:24:17.671Z,98825.92
2018-07-26T06:26:46.725Z,98817.55
2018-07-26T06:29:15.846Z,98820.17
2018-07-26T06:31:45.211Z,98818.09
2018-07-26T06:34:14.282Z,98812.36
2018-07-26T06:36:43.351Z,98808.64
2018-07-26T06:39:13.866Z,98810.97
2018-07-26T06:41:43.906Z,98810.41
2018-07-26T06:44:13.695Z,98805.47
2018-07-26T06:46:43.412Z,98807.59
2018-07-26T06:49:12.512Z,98811.05
2018-07-26T06:51:41.657Z,98815.12
2018-07-26T06:54:10.714Z,98813.04
2018-07-26T06:56:39.965Z,98820.61
2018-07-26T06:59:09.061Z,98820.20
2018-07-26T07:01:38.340Z,98822.69
2018-07-26T07:04:07.906Z,98820.95
2018-07-26T07:06:37.127Z,98823.75
2018-07-26T07:09:08.997Z,98826.44
2018-07-26T07:11:38.430Z,98820.58
2018-07-26T07:14:07.543Z,98820.73
2018-07-26T07:16:36.649Z,98821.08
2018-07-26T07:19:05.854Z,98820.27
2018-07-26T07:21:34.949Z,98823.66
2018-07-26T07:24:04.076Z,98819.89
2018-07-26T07:26:33.167Z,98826.80
2018-07-26T07:29:02.279Z,98823.39
2018-07-26T07:31:31.511Z,98821.59
2018-07-26T07:34:00.784Z,98818.16
2018-07-26T07:36:29.874Z,98819.19
2018-07-26T07:38:58.932Z,98821.06
2018-07-26T07:41:28.102Z,98816.67
2018-07-26T07:43:57.252Z,98812.09
2018-07-26T07:46:26.461Z,98814.12
2018-07-26T07:48:55.489Z,98810.71
2018-07-26T07:51:25.379Z,98806.51
2018-07-26T07:53:54.609Z,98804.41
2018-07-26T07:56:23.725Z,98807.20
2018-07-26T07:58:52.836Z,98807.45
2018-07-26T08:01:21.912Z,98805.15
2018-07-26T08:03:50.940Z,98808.89
2018-07-26T08:06:20.323Z,98811.81
2018-07-26T08:08:49.932Z,98809.52
2018-07-26T08:11:19.443Z,98805.63
2018-07-26T08:13:48.650Z,98814.20
2018-07-26T08:16:17.926Z,98807.44
2018-07-26T08:18:46.985Z,98805.49
2018-07-26T08:21:16.258Z,98803.94
2018-07-26T08:23:45.289Z,98804.89
2018-07-26T08:26:14.395Z,98800.05
2018-07-26T08:28:43.464Z,98805.09
2018-07-26T08:31:12.601Z,98799.62
2018-07-26T08:33:42.582Z,98801.94
2018-07-26T08:36:11.707Z,98802.33
2018-07-26T08:38:40.934Z,98793.55
2018-07-26T08:41:10.584Z,98797.23
2018-07-26T08:43:39.618Z,98798.95
2018-07-26T08:46:08.807Z,98796.39
2018-07-26T08:48:38.035Z,98794.63
2018-07-26T08:51:07.184Z,98801.41
2018-07-26T08:53:36.299Z,98796.87
2018-07-26T08:56:05.417Z,98796.23
2018-07-26T08:58:34.518Z,98792.69
2018-07-26T09:01:03.818Z,98791.66
2018-07-26T09:03:32.882Z,98795.30
2018-07-26T09:06:02.337Z,98795.23
2018-07-26T09:08:31.429Z,98791.05
2018-07-26T09:11:00.593Z,98790.82
2018-07-26T09:13:30.159Z,98793.27
2018-07-26T09:15:59.285Z,98794.36
2018-07-26T09:18:28.378Z,98793.37
2018-07-26T09:20:57.620Z,98788.84
2018-07-26T09:23:26.778Z,98793.27
2018-07-26T09:25:55.905Z,98788.48
2018-07-26T09:28:25.026Z,98786.25
2018-07-26T09:30:54.175Z,98792.02
2018-07-26T09:33:23.380Z,98790.73
2018-07-26T09:35:52.360Z,98788.21
2018-07-26T09:38:22.347Z,98779.06
2018-07-26T09:40:51.418Z,98781.87
2018-07-26T09:43:20.597Z,98789.16
2018-07-26T09:45:50.023Z,98785.91
2018-07-26T09:48:19.877Z,98785.28
2018-07-26T09:50:49.099Z,98778.84
2018-07-26T09:53:18.275Z,98786.41
2018-07-26T09:55:47.507Z,98778.64
2018-07-26T09:58:16.596Z,98777.12
2018-07-26T10:00:50.987Z,98781.43
2018-07-26T10:03:20.142Z,98781.56
2018-07-26T10:05:49.241Z,98775.64
2018-07-26T10:08:18.285Z,98766.91
2018-07-26T10:10:47.716Z,98773.88
2018-07-26T10:13:16.799Z,98768.87
2018-07-26T10:15:46.277Z,98778.25
2018-07-26T10:18:18.145Z,98777.02
2018-07-26T10:20:47.446Z,98771.73
2018-07-26T10:23:16.564Z,98774.00
2018-07-26T10:25:45.834Z,98770.50
2018-07-26T10:28:15.034Z,98776.69
2018-07-26T10:30:44.400Z,98771.52
2018-07-26T10:33:13.445Z,98769.76
2018-07-26T10:35:42.610Z,98776.19
2018-07-26T10:38:11.719Z,98770.59
2018-07-26T10:40:40.951Z,98768.70
2018-07-26T10:43:10.147Z,98762.76
2018-07-26T10:45:39.249Z,98763.31
2018-07-26T10:48:08.508Z,98759.43
2018-07-26T10:50:37.531Z,98762.22
2018-07-26T10:53:07.033Z,98758.33
2018-07-26T10:55:36.193Z,98756.64
2018-07-26T10:58:05.289Z,98754.81
2018-07-26T11:00:34.623Z,98757.09
2018-07-26T11:03:03.818Z,98753.44
2018-07-26T11:05:32.877Z,98751.89
2018-07-26T11:08:01.975Z,98744.34
2018-07-26T11:10:31.104Z,98746.59
2018-07-26T11:13:00.158Z,98749.34
2018-07-26T11:15:31.098Z,98746.59
2018-07-26T11:18:00.938Z,98735.52
2018-07-26T11:20:30.158Z,98742.87
2018-07-26T11:22:59.409Z,98746.50
2018-07-26T11:25:28.565Z,98738.52
2018-07-26T11:27:57.622Z,98740.19
2018-07-26T11:30:26.668Z,98743.31
2018-07-26T11:32:55.783Z,98738.03
2018-07-26T11:35:24.882Z,98735.28
2018-07-26T11:37:53.993Z,98727.20
2018-07-26T11:40:23.069Z,98726.44
2018-07-26T11:42:52.250Z,98730.38
2018-07-26T11:45:21.613Z,98734.08
2018-07-26T11:47:50.721Z,98736.65
2018-07-26T11:50:20.085Z,98727.80
2018-07-26T11:52:49.168Z,98723.70
2018-07-26T11:55:18.307Z,98720.42
2018-07-26T11:57:47.486Z,98717.05
2018-07-26T12:00:16.722Z,98720.34
2018-07-26T12:02:45.899Z,98721.12
2018-07-26T12:05:15.004Z,98716.97
2018-07-26T12:07:44.194Z,98717.95
2018-07-26T12:10:15.189Z,98705.58
2018-07-26T12:12:44.266Z,98704.95
2018-07-26T12:15:13.393Z,98706.83
2018-07-26T12:17:42.587Z,98701.47
2018-07-26T12:20:11.642Z,98698.79
2018-07-26T12:22:41.029Z,98694.53
2018-07-26T12:25:10.227Z,98690.34
2018-07-26T12:27:39.311Z,98687.59
2018-07-26T12:30:08.816Z,98689.64
2018-07-26T12:32:37.934Z,98685.22
2018-07-26T12:35:07.008Z,98692.16
2018-07-26T12:37:36.158Z,98690.47
2018-07-26T12:40:05.713Z,98692.00
2018-07-26T12:42:34.911Z,98684.91
2018-07-26T12:45:04.305Z,98682.25
2018-07-26T12:47:33.789Z,98648.70
2018-07-26T12:50:02.923Z,98670.41
2018-07-26T12:52:32.110Z,98671.28
2018-07-26T12:55:01.166Z,98669.86
2018-07-26T12:57:30.332Z,98665.09
2018-07-26T12:59:59.457Z,98665.84
2018-07-26T13:02:28.618Z,98662.05
2018-07-26T13:04:57.691Z,98660.36
2018-07-26T13:07:26.998Z,98655.76
2018-07-26T13:09:56.460Z,98651.87
2018-07-26T13:12:25.884Z,98647.62
2018-07-26T13:14:55.010Z,98649.52
2018-07-26T13:17:24.119Z,98646.91
2018-07-26T13:19:53.181Z,98647.69
2018-07-26T13:22:22.284Z,98645.02
2018-07-26T13:24:51.928Z,98642.39
2018-07-26T13:27:21.301Z,98646.45
2018-07-26T13:29:50.350Z,98647.78
2018-07-26T13:32:19.476Z,98647.03
2018-07-26T13:34:48.783Z,98646.20
2018-07-26T13:37:17.878Z,98637.85
2018-07-26T13:39:47.036Z,98523.81
2018-07-26T13:42:16.158Z,98638.40
2018-07-26T13:44:45.318Z,98634.20
2018-07-26T13:47:14.427Z,98628.22
2018-07-26T13:49:43.734Z,98631.03
2018-07-26T13:52:12.866Z,98628.25
2018-07-26T13:54:42.053Z,98630.35
2018-07-26T13:57:11.277Z,98624.67
2018-07-26T13:59:40.461Z,98622.44
2018-07-26T14:02:09.647Z,98628.42
2018-07-26T14:04:38.875Z,98619.98
2018-07-26T14:07:07.987Z,98626.87
2018-07-26T14:09:37.202Z,98613.04
2018-07-26T14:12:06.574Z,98614.13
2018-07-26T14:14:35.657Z,98611.97
2018-07-26T14:17:05.047Z,98609.63
2018-07-26T14:19:34.194Z,98607.17
2018-07-26T14:22:03.327Z,98602.25
2018-07-26T14:24:32.502Z,98607.39
2018-07-26T14:27:01.595Z,98594.42
2018-07-26T14:29:31.470Z,98593.95
2018-07-26T14:32:00.541Z,98599.81
2018-07-26T14:34:29.655Z,98599.23
2018-07-26T14:36:58.719Z,98598.27
2018-07-26T14:39:27.885Z,98600.13
2018-07-26T14:41:57.061Z,98596.39
2018-07-26T14:44:26.209Z,98597.83
2018-07-26T14:46:55.561Z,98595.53
2018-07-26T14:49:26.161Z,98586.64
2018-07-26T14:51:55.364Z,98587.48
2018-07-26T14:54:24.425Z,98585.99
2018-07-26T14:56:53.483Z,98580.56
2018-07-26T14:59:22.627Z,98582.59
2018-07-26T15:01:51.821Z,98575.17
2018-07-26T15:04:20.926Z,98575.41
2018-07-26T15:06:50.134Z,98583.06
2018-07-26T15:09:19.339Z,98580.63
2018-07-26T15:11:49.056Z,98577.77
2018-07-26T15:14:18.535Z,98567.63
2018-07-26T15:16:47.721Z,98576.05
2018-07-26T15:19:16.957Z,98578.98
2018-07-26T15:21:46.163Z,98581.81
2018-07-26T15:24:15.650Z,98575.78
2018-07-26T15:26:45.642Z,98570.52
2018-07-26T15:29:14.737Z,98571.88
2018-07-26T15:31:43.838Z,98571.19
2018-07-26T15:34:12.898Z,98573.02
2018-07-26T15:36:42.221Z,98571.47
2018-07-26T15:39:11.542Z,98565.51
2018-07-26T15:41:45.548Z,98570.75
2018-07-26T15:44:15.889Z,98569.36
2018-07-26T15:46:44.985Z,98569.03
2018-07-26T15:49:14.075Z,98566.81
2018-07-26T15:51:43.155Z,98565.61
2018-07-26T15:54:12.249Z,98566.03
2018-07-26T15:56:41.886Z,98559.19
2018-07-26T15:59:11.195Z,98543.80
2018-07-26T16:01:40.343Z,98558.26
2018-07-26T16:04:09.522Z,98564.65
2018-07-26T16:06:38.789Z,98556.97
2018-07-26T16:09:09.798Z,98556.35
2018-07-26T16:11:39.111Z,98556.99
2018-07-26T16:14:08.964Z,98555.58
2018-07-26T16:16:38.157Z,98555.15
2018-07-26T16:19:07.221Z,98548.25
2018-07-26T16:21:36.566Z,98553.13
2018-07-26T16:24:05.795Z,98556.63
2018-07-26T16:26:35.818Z,98552.30
2018-07-26T16:29:05.099Z,98546.86
2018-07-26T16:31:34.432Z,98540.25
2018-07-26T16:34:03.731Z,98544.16
2018-07-26T16:36:32.790Z,98537.14
2018-07-26T16:39:01.883Z,98542.14
2018-07-26T16:41:30.967Z,98539.16
2018-07-26T16:44:00.058Z,98540.08
2018-07-26T16:46:29.131Z,98530.14
2018-07-26T16:48:58.245Z,98549.96
2018-07-26T16:51:27.927Z,98531.52
2018-07-26T16:53:57.535Z,98531.03
2018-07-26T16:56:26.679Z,98530.22
2018-07-26T16:58:55.908Z,98531.44
2018-07-26T17:01:24.818Z,98532.03
2018-07-26T17:03:53.935Z,98537.42
2018-07-26T17:06:23.036Z,98543.90
2018-07-26T17:08:52.132Z,98535.86
2018-07-26T17:11:21.232Z,98538.98
2018-07-26T17:13:50.328Z,98538.31
2018-07-26T17:16:19.390Z,98539.78
2018-07-26T17:18:48.607Z,98532.38
2018-07-26T17:21:17.859Z,98534.41
2018-07-26T17:23:47.474Z,98537.16
2018-07-26T17:26:16.653Z,98531.88
2018-07-26T17:28:45.754Z,98533.70
2018-07-26T17:31:14.922Z,98532.19
2018-07-26T17:33:44.034Z,98536.21
2018-07-26T17:36:13.196Z,98527.69
2018-07-26T17:38:42.307Z,98531.30
2018-07-26T17:41:11.403Z,98535.64
2018-07-26T17:43:40.512Z,98528.75
2018-07-26T17:46:09.617Z,98530.05
2018-07-26T17:48:38.751Z,98538.05
2018-07-26T17:51:07.973Z,98542.19
2018-07-26T17:53:37.100Z,98544.48
2018-07-26T17:56:06.298Z,98546.40
2018-07-26T17:58:35.352Z,98549.05
2018-07-26T18:01:04.621Z,98545.22
2018-07-26T18:03:34.006Z,98549.59
2018-07-26T18:06:03.071Z,98549.70
2018-07-26T18:08:32.214Z,98554.11
2018-07-26T18:11:01.404Z,98550.73
2018-07-26T18:13:30.510Z,98550.09
2018-07-26T18:15:59.905Z,98555.23
2018-07-26T18:18:29.030Z,98558.15
2018-07-26T18:20:58.233Z,98554.30
2018-07-26T18:23:27.403Z,98553.56
2018-07-26T18:25:56.607Z,98552.47
2018-07-26T18:28:25.829Z,98552.81
2018-07-26T18:30:55.166Z,98549.60
2018-07-26T18:33:24.395Z,98554.67
2018-07-26T18:35:53.488Z,98558.21
2018-07-26T18:38:22.619Z,98550.47
2018-07-26T18:40:51.814Z,98554.25
2018-07-26T18:43:20.921Z,98553.48
2018-07-26T18:45:50.100Z,98553.80
2018-07-26T18:48:19.224Z,98559.27
2018-07-26T18:50:48.334Z,98566.39
2018-07-26T18:53:17.416Z,98568.58
2018-07-26T18:55:46.469Z,98568.95
2018-07-26T18:58:15.587Z,98570.73
2018-07-26T19:00:44.702Z,98576.34
2018-07-26T19:03:13.835Z,98576.97
2018-07-26T19:05:42.934Z,98580.25
2018-07-26T19:08:12.078Z,98581.30
2018-07-26T19:10:41.293Z,98584.30
2018-07-26T19:13:10.449Z,98589.62
2018-07-26T19:15:39.706Z,98597.20
2018-07-26T19:18:08.753Z,98567.37
2018-07-26T19:20:37.974Z,98597.45
2018-07-26T19:23:07.003Z,98599.45
2018-07-26T19:25:36.220Z,98603.38
2018-07-26T19:28:05.365Z,98602.73
2018-07-26T19:30:34.481Z,98602.64
2018-07-26T19:33:03.558Z,98609.68
2018-07-26T19:35:32.779Z,98601.56
2018-07-26T19:38:02.509Z,98602.66
2018-07-26T19:40:31.637Z,98606.94
2018-07-26T19:43:01.213Z,98608.60
2018-07-26T19:45:30.328Z,98618.11
2018-07-26T19:48:03.887Z,98620.60
2018-07-26T19:50:32.974Z,98619.24
2018-07-26T19:53:02.107Z,98624.72
2018-07-26T19:55:31.262Z,98623.78
2018-07-26T19:58:00.383Z,98630.92
2018-07-26T20:00:29.422Z,98633.94
2018-07-26T20:02:58.502Z,98639.45
2018-07-26T20:05:27.590Z,98641.77
2018-07-26T20:07:56.721Z,98643.44
2018-07-26T20:10:25.866Z,98639.73
2018-07-26T20:12:55.018Z,98646.20
2018-07-26T20:15:24.179Z,98646.54
2018-07-26T20:17:53.546Z,98649.64
2018-07-26T20:20:22.745Z,98644.59
2018-07-26T20:22:51.801Z,98653.87
2018-07-26T20:25:20.885Z,98655.34
2018-07-26T20:27:50.033Z,98652.34
2018-07-26T20:30:19.498Z,98654.34
2018-07-26T20:32:48.644Z,98658.27
2018-07-26T20:35:17.689Z,98657.41
2018-07-26T20:37:46.825Z,98658.15
2018-07-26T20:40:15.857Z,98659.36
2018-07-26T20:42:45.020Z,98663.61
2018-07-26T20:45:14.147Z,98669.46
2018-07-26T20:47:43.290Z,98668.58
2018-07-26T20:50:12.332Z,98671.31
2018-07-26T20:52:41.477Z,98671.30
2018-07-26T20:55:10.529Z,98673.31
2018-07-26T20:57:39.620Z,98670.92
2018-07-26T21:00:10.560Z,98668.74
2018-07-26T21:02:39.722Z,98680.64
2018-07-26T21:05:09.006Z,98667.89
2018-07-26T21:07:38.044Z,98674.73
2018-07-26T21:10:08.163Z,98673.31
2018-07-26T21:12:37.269Z,98671.92
2018-07-26T21:15:07.195Z,98676.94
2018-07-26T21:17:36.347Z,98682.83
2018-07-26T21:20:05.674Z,98679.74
2018-07-26T21:22:34.889Z,98678.45
2018-07-26T21:25:04.152Z,98678.06
2018-07-26T21:27:33.220Z,98676.72
2018-07-26T21:30:03.062Z,98684.34
2018-07-26T21:32:32.133Z,98681.98
2018-07-26T21:35:01.179Z,98688.46
2018-07-26T21:37:30.432Z,98689.61
2018-07-26T21:39:59.831Z,98687.05
2018-07-26T21:42:28.881Z,98682.40
2018-07-26T21:44:58.098Z,98683.95
2018-07-26T21:47:27.294Z,98684.16
2018-07-26T21:49:56.461Z,98689.52
2018-07-26T21:52:25.677Z,98688.34
2018-07-26T21:54:54.826Z,98689.56
2018-07-26T21:57:24.289Z,98691.84
2018-07-26T21:59:53.382Z,98689.13
2018-07-26T22:02:22.548Z,98692.81
2018-07-26T22:04:51.610Z,98694.52
2018-07-26T22:07:20.898Z,98690.25
2018-07-26T22:09:49.950Z,98687.09
2018-07-26T22:12:19.074Z,98694.42
2018-07-26T22:14:48.172Z,98691.13
2018-07-26T22:17:17.243Z,98692.55
2018-07-26T22:19:46.278Z,98692.50
2018-07-26T22:22:15.372Z,98692.63
2018-07-26T22:24:44.408Z,98694.72
2018-07-26T22:27:13.483Z,98690.81
2018-07-26T22:29:42.607Z,98692.67
2018-07-26T22:32:11.697Z,98686.76
2018-07-26T22:34:40.849Z,98695.13
2018-07-26T22:37:09.992Z,98691.71
2018-07-26T22:39:39.083Z,98698.05
2018-07-26T22:42:08.183Z,98696.03
2018-07-26T22:44:37.259Z,98692.28
2018-07-26T22:47:06.313Z,98694.80
2018-07-26T22:49:35.365Z,98696.16
2018-07-26T22:52:04.449Z,98698.18
2018-07-26T22:54:33.506Z,98702.98
2018-07-26T22:57:02.606Z,98696.73
2018-07-26T22:59:31.646Z,98698.23
2018-07-26T23:02:00.737Z,98695.88
2018-07-26T23:04:29.778Z,98695.19
2018-07-26T23:06:58.888Z,98690.31
2018-07-26T23:09:27.981Z,98689.41
2018-07-26T23:11:57.105Z,98694.36
2018-07-26T23:14:26.177Z,98696.15
2018-07-26T23:16:56.476Z,98695.17
2018-07-26T23:19:25.604Z,98695.58
2018-07-26T23:21:54.652Z,98695.88
2018-07-26T23:24:34.531Z,98701.80
2018-07-26T23:27:03.597Z,98699.47
2018-07-26T23:29:32.719Z,98527.36
2018-07-26T23:32:01.817Z,98699.28
2018-07-26T23:34:30.961Z,98696.67
2018-07-26T23:37:00.007Z,98694.38
2018-07-26T23:39:30.045Z,98696.98
2018-07-26T23:41:59.057Z,98691.70
2018-07-26T23:44:28.305Z,98688.55
2018-07-26T23:46:57.417Z,98690.31
2018-07-26T23:49:26.500Z,98689.45
2018-07-26T23:51:55.553Z,98687.58
2018-07-26T23:54:24.617Z,98689.34
2018-07-26T23:56:53.661Z,98687.03
2018-07-26T23:59:22.743Z,98682.16
